createdAt,value
2022-09-24T00:04:56.603Z,15.03
2022-09-24T00:10:18.341Z,15.08
2022-09-24T00:15:43.631Z,15.14
2022-09-24T00:21:14.589Z,15.14
2022-09-24T00:26:51.489Z,15.10
2022-09-24T00:32:13.076Z,15.06
2022-09-24T00:37:35.300Z,15.14
2022-09-24T00:42:57.136Z,15.18
2022-09-24T00:48:19.127Z,15.18
2022-09-24T00:53:42.126Z,15.21
2022-09-24T00:59:05.784Z,15.16
2022-09-24T01:04:27.960Z,15.12
2022-09-24T01:09:50.316Z,15.34
2022-09-24T01:15:18.029Z,15.37
2022-09-24T01:21:07.095Z,15.38
2022-09-24T01:26:58.653Z,15.29
2022-09-24T01:32:28.912Z,15.36
2022-09-24T01:37:56.419Z,15.36
2022-09-24T01:43:21.963Z,15.34
2022-09-24T01:48:44.515Z,15.50
2022-09-24T01:54:11.188Z,15.49
2022-09-24T01:59:36.501Z,15.54
2022-09-24T02:05:03.558Z,15.51
2022-09-24T02:10:28.833Z,15.30
2022-09-24T02:15:52.272Z,15.50
2022-09-24T02:21:16.213Z,15.52
2022-09-24T02:26:38.087Z,15.51
2022-09-24T02:32:00.167Z,15.38
2022-09-24T02:37:23.770Z,15.39
2022-09-24T02:42:45.435Z,15.39
2022-09-24T02:48:07.235Z,15.42
2022-09-24T02:53:29.619Z,15.33
2022-09-24T02:58:51.282Z,15.38
2022-09-24T03:04:13.447Z,15.28
2022-09-24T03:09:38.264Z,15.04
2022-09-24T03:14:59.909Z,15.27
2022-09-24T03:20:22.104Z,15.08
2022-09-24T03:25:44.381Z,15.08
2022-09-24T03:31:07.228Z,14.92
2022-09-24T03:36:28.960Z,14.99
2022-09-24T03:41:51.308Z,14.98
2022-09-24T03:47:12.928Z,14.96
2022-09-24T03:52:34.530Z,14.79
2022-09-24T03:57:56.813Z,14.78
2022-09-24T04:03:18.560Z,14.63
2022-09-24T04:08:40.262Z,14.70
2022-09-24T04:14:02.594Z,14.75
2022-09-24T04:19:26.090Z,14.76
2022-09-24T04:24:47.743Z,14.75
2022-09-24T04:30:12.254Z,14.83
2022-09-24T04:35:35.579Z,14.84
2022-09-24T04:41:04.478Z,14.88
2022-09-24T04:46:26.793Z,14.89
2022-09-24T04:51:48.470Z,14.91
2022-09-24T04:57:10.231Z,14.81
2022-09-24T05:02:32.771Z,14.90
2022-09-24T05:07:56.019Z,14.84
2022-09-24T05:13:17.638Z,14.80
2022-09-24T05:18:40.419Z,14.73
2022-09-24T05:24:02.457Z,14.63
2022-09-24T05:29:24.380Z,14.66
2022-09-24T05:34:47.272Z,14.61
2022-09-24T05:40:33.049Z,14.55
2022-09-24T05:45:56.381Z,14.57
2022-09-24T05:51:18.659Z,14.61
2022-09-24T05:56:40.248Z,14.59
2022-09-24T06:02:01.955Z,14.63
2022-09-24T06:07:24.252Z,14.69
2022-09-24T06:12:46.243Z,14.69
2022-09-24T06:18:08.134Z,14.63
2022-09-24T06:23:30.678Z,14.67
2022-09-24T06:28:52.313Z,14.60
2022-09-24T06:34:14.863Z,14.80
2022-09-24T06:39:37.334Z,14.75
2022-09-24T06:44:59.180Z,14.81
2022-09-24T06:50:22.140Z,14.92
2022-09-24T06:55:46.876Z,15.05
2022-09-24T07:01:09.026Z,15.17
2022-09-24T07:06:51.173Z,15.23
2022-09-24T07:12:13.816Z,15.27
2022-09-24T07:17:35.897Z,15.15
2022-09-24T07:22:57.750Z,15.13
2022-09-24T07:28:20.912Z,14.98
2022-09-24T07:33:42.987Z,15.04
2022-09-24T07:39:04.822Z,14.91
2022-09-24T07:44:28.383Z,14.96
2022-09-24T07:49:50.233Z,15.11
2022-09-24T07:55:12.068Z,15.20
2022-09-24T08:00:34.865Z,15.10
2022-09-24T08:05:59.082Z,15.15
2022-09-24T08:11:21.066Z,15.17
2022-09-24T08:16:43.572Z,15.17
2022-09-24T08:22:07.456Z,15.17
2022-09-24T08:27:30.566Z,15.18
2022-09-24T08:32:53.109Z,15.28
2022-09-24T08:38:15.289Z,15.50
2022-09-24T08:43:44.064Z,15.29
2022-09-24T08:49:10.194Z,15.41
2022-09-24T08:54:34.252Z,15.50
2022-09-24T08:59:56.109Z,15.70
2022-09-24T09:05:26.913Z,15.61
2022-09-24T09:10:49.072Z,15.66
2022-09-24T09:16:19.227Z,15.86
2022-09-24T09:21:43.830Z,15.65
2022-09-24T09:27:10.904Z,15.94
2022-09-24T09:32:40.173Z,16.04
2022-09-24T09:38:08.844Z,16.40
2022-09-24T09:43:30.757Z,16.51
2022-09-24T09:48:56.597Z,16.40
2022-09-24T09:54:19.168Z,16.34
2022-09-24T09:59:41.144Z,16.54
2022-09-24T10:05:05.301Z,16.41
2022-09-24T10:10:29.018Z,16.66
2022-09-24T10:15:52.443Z,16.65
2022-09-24T10:21:30.995Z,16.72
2022-09-24T10:26:54.977Z,16.94
2022-09-24T10:32:18.250Z,17.10
2022-09-24T10:37:50.347Z,17.45
2022-09-24T10:43:18.705Z,17.69
2022-09-24T10:48:44.298Z,17.78
2022-09-24T10:54:17.845Z,17.79
2022-09-24T10:59:53.026Z,17.45
2022-09-24T11:05:18.691Z,17.43
2022-09-24T11:10:52.587Z,17.21
2022-09-24T11:16:49.929Z,17.08
2022-09-24T11:22:14.307Z,17.21
2022-09-24T11:27:51.616Z,17.08
2022-09-24T11:33:25.558Z,17.19
2022-09-24T11:39:03.448Z,17.20
2022-09-24T11:45:04.353Z,17.53
2022-09-24T11:50:33.547Z,17.66
2022-09-24T11:55:57.874Z,17.99
2022-09-24T12:01:22.272Z,18.19
2022-09-24T12:06:51.762Z,18.20
2022-09-24T12:12:17.740Z,18.30
2022-09-24T12:17:42.344Z,18.39
2022-09-24T12:23:10.973Z,18.33
2022-09-24T12:28:57.074Z,18.23
2022-09-24T12:34:23.384Z,18.27
2022-09-24T12:39:50.098Z,18.27
2022-09-24T12:45:15.594Z,18.24
2022-09-24T12:50:38.296Z,18.20
2022-09-24T12:56:01.664Z,18.02
2022-09-24T13:01:31.742Z,17.75
2022-09-24T13:06:53.632Z,17.80
2022-09-24T13:12:21.142Z,17.80
2022-09-24T13:17:44.154Z,17.82
2022-09-24T13:23:28.767Z,17.78
2022-09-24T13:28:55.852Z,17.90
2022-09-24T13:34:20.027Z,17.94
2022-09-24T13:39:44.047Z,17.92
2022-09-24T13:45:11.314Z,17.92
2022-09-24T13:50:38.925Z,18.03
2022-09-24T13:56:03.770Z,17.96
2022-09-24T14:01:29.243Z,17.84
2022-09-24T14:06:52.734Z,17.84
2022-09-24T14:12:16.141Z,17.90
2022-09-24T14:17:38.633Z,18.10
2022-09-24T14:23:01.198Z,18.15
2022-09-24T14:28:23.408Z,17.97
2022-09-24T14:33:46.365Z,17.92
2022-09-24T14:39:10.770Z,17.93
2022-09-24T14:44:32.924Z,18.23
2022-09-24T14:49:55.976Z,18.17
2022-09-24T14:55:19.658Z,18.09
2022-09-24T15:00:47.173Z,18.15
2022-09-24T15:06:20.143Z,18.20
2022-09-24T15:11:43.798Z,18.18
2022-09-24T15:17:10.242Z,18.29
2022-09-24T15:22:32.781Z,18.20
2022-09-24T15:27:54.664Z,18.00
2022-09-24T15:33:17.655Z,17.76
2022-09-24T15:38:40.203Z,17.94
2022-09-24T15:44:02.117Z,18.01
2022-09-24T15:49:24.208Z,17.88
2022-09-24T15:54:46.714Z,17.94
2022-09-24T16:00:16.112Z,18.08
2022-09-24T16:05:38.893Z,17.69
2022-09-24T16:11:04.799Z,17.94
2022-09-24T16:16:30.112Z,17.96
2022-09-24T16:21:52.051Z,17.90
2022-09-24T16:27:14.850Z,17.95
2022-09-24T16:32:36.693Z,17.86
2022-09-24T16:37:58.492Z,17.88
2022-09-24T16:43:21.004Z,17.85
2022-09-24T16:48:43.711Z,17.78
2022-09-24T16:54:05.734Z,17.27
2022-09-24T16:59:28.260Z,17.15
2022-09-24T17:04:52.843Z,16.93
2022-09-24T17:10:15.320Z,16.78
2022-09-24T17:15:37.840Z,16.67
2022-09-24T17:21:00.593Z,16.53
2022-09-24T17:26:22.911Z,16.26
2022-09-24T17:31:45.737Z,16.27
2022-09-24T17:37:07.651Z,16.27
2022-09-24T17:42:30.988Z,16.15
2022-09-24T17:47:56.107Z,15.97
2022-09-24T17:53:20.502Z,15.87
2022-09-24T17:58:43.800Z,15.68
2022-09-24T18:04:09.079Z,15.75
2022-09-24T18:09:30.890Z,15.78
2022-09-24T18:14:52.758Z,15.80
2022-09-24T18:20:15.388Z,15.74
2022-09-24T18:25:37.301Z,15.57
2022-09-24T18:31:02.666Z,15.56
2022-09-24T18:36:25.443Z,15.37
2022-09-24T18:41:47.134Z,15.17
2022-09-24T18:47:13.824Z,15.02
2022-09-24T18:52:36.123Z,14.95
2022-09-24T18:57:57.756Z,14.80
2022-09-24T19:03:19.900Z,14.72
2022-09-24T19:08:42.203Z,14.80
2022-09-24T19:14:03.893Z,14.90
2022-09-24T19:19:26.897Z,14.79
2022-09-24T19:24:49.299Z,14.73
2022-09-24T19:30:11.747Z,14.75
2022-09-24T19:35:34.414Z,14.71
2022-09-24T19:40:58.385Z,14.64
2022-09-24T19:46:23.429Z,14.65
2022-09-24T19:51:45.061Z,14.61
2022-09-24T19:57:07.393Z,14.51
2022-09-24T20:02:29.614Z,14.46
2022-09-24T20:07:51.324Z,14.39
2022-09-24T20:13:13.571Z,14.34
2022-09-24T20:18:35.499Z,14.28
2022-09-24T20:23:57.893Z,14.22
2022-09-24T20:29:22.041Z,14.18
2022-09-24T20:34:43.718Z,14.06
2022-09-24T20:40:06.390Z,14.05
2022-09-24T20:45:28.864Z,14.00
2022-09-24T20:50:50.517Z,13.99
2022-09-24T20:56:12.950Z,13.96
2022-09-24T21:01:35.505Z,13.95
2022-09-24T21:06:57.260Z,13.93
2022-09-24T21:12:19.028Z,13.88
2022-09-24T21:17:54.770Z,13.72
2022-09-24T21:23:25.806Z,13.75
2022-09-24T21:28:49.315Z,13.75
2022-09-24T21:34:12.564Z,13.61
2022-09-24T21:39:35.158Z,13.50
2022-09-24T21:44:57.083Z,13.51
2022-09-24T21:50:19.467Z,13.43
2022-09-24T21:55:41.454Z,13.53
2022-09-24T22:01:06.905Z,13.47
2022-09-24T22:06:30.663Z,13.44
2022-09-24T22:11:52.609Z,13.37
2022-09-24T22:17:14.415Z,13.33
2022-09-24T22:22:36.752Z,13.27
2022-09-24T22:27:58.356Z,13.29
2022-09-24T22:33:38.299Z,13.29
2022-09-24T22:39:00.978Z,13.30
2022-09-24T22:44:22.641Z,13.17
2022-09-24T22:49:44.211Z,13.23
2022-09-24T22:55:07.568Z,13.19
2022-09-24T23:00:29.170Z,13.15
2022-09-24T23:05:50.766Z,13.01
2022-09-24T23:11:15.168Z,13.11
2022-09-24T23:16:37.306Z,13.06
2022-09-24T23:21:58.922Z,12.91
2022-09-24T23:27:21.640Z,12.84
2022-09-24T23:32:43.254Z,12.79
2022-09-24T23:38:05.354Z,12.75
2022-09-24T23:43:27.855Z,12.69
2022-09-24T23:48:49.530Z,12.42
2022-09-24T23:54:11.240Z,12.63
2022-09-24T23:59:33.850Z,12.56
